createdAt,value
2016-08-07T00:00:10.635Z,77.1
2016-08-07T00:00:21.879Z,77.1
2016-08-07T00:00:33.129Z,77.1
2016-08-07T00:00:44.370Z,76.8
2016-08-07T00:00:55.613Z,76.8
2016-08-07T00:01:06.853Z,77
2016-08-07T00:01:18.098Z,76.9
2016-08-07T00:01:29.338Z,76.9
2016-08-07T00:01:40.582Z,77
2016-08-07T00:01:51.823Z,76.7
2016-08-07T00:02:03.061Z,77.1
2016-08-07T00:02:14.307Z,76.9
2016-08-07T00:02:25.550Z,76.9
2016-08-07T00:02:36.803Z,76.8
2016-08-07T00:02:48.047Z,76.9
2016-08-07T00:02:59.284Z,76.9
2016-08-07T00:03:10.523Z,76.9
2016-08-07T00:03:21.764Z,77
2016-08-07T00:03:33.009Z,76.9
2016-08-07T00:03:44.246Z,76.9
2016-08-07T00:03:55.490Z,77.1
2016-08-07T00:04:06.730Z,76.9
2016-08-07T00:04:17.971Z,77.1
2016-08-07T00:04:29.221Z,76.8
2016-08-07T00:04:40.463Z,76.9
2016-08-07T00:04:51.710Z,77
2016-08-07T00:05:02.951Z,77.2
2016-08-07T00:05:14.190Z,77.1
2016-08-07T00:05:24.707Z,76.9
2016-08-07T00:05:35.958Z,77
2016-08-07T00:05:47.194Z,77
2016-08-07T00:05:57.704Z,77
2016-08-07T00:06:08.947Z,76.9
2016-08-07T00:06:20.193Z,76.9
2016-08-07T00:06:31.435Z,76.9
2016-08-07T00:06:42.678Z,77.1
2016-08-07T00:06:53.915Z,77.1
2016-08-07T00:07:05.152Z,76.9
2016-08-07T00:07:16.397Z,76.8
2016-08-07T00:07:27.631Z,76.9
2016-08-07T00:07:38.876Z,77
2016-08-07T00:08:02.070Z,76.8
2016-08-07T00:08:13.309Z,76.8
2016-08-07T00:08:24.549Z,76.9
2016-08-07T00:08:35.796Z,76.9
2016-08-07T00:08:48.097Z,76.9
2016-08-07T00:08:59.342Z,76.9
2016-08-07T00:09:09.842Z,76.8
2016-08-07T00:09:21.089Z,77.1
2016-08-07T00:09:31.599Z,77.3
2016-08-07T00:09:42.840Z,77.3
2016-08-07T00:09:54.080Z,77.2
2016-08-07T00:10:05.325Z,77.3
2016-08-07T00:10:16.570Z,77.2
2016-08-07T00:10:27.813Z,77
2016-08-07T00:10:39.054Z,77.1
2016-08-07T00:10:50.301Z,76.8
2016-08-07T00:11:01.534Z,77.1
2016-08-07T00:11:12.774Z,77.3
2016-08-07T00:11:24.018Z,77
2016-08-07T00:11:35.255Z,77.3
2016-08-07T00:11:46.497Z,77.4
2016-08-07T00:11:57.743Z,77.3
2016-08-07T00:12:08.989Z,77.2
2016-08-07T00:12:20.242Z,77.2
2016-08-07T00:12:31.488Z,77.3
2016-08-07T00:12:42.727Z,77.2
2016-08-07T00:12:53.967Z,77.2
2016-08-07T00:13:05.214Z,77.1
2016-08-07T00:13:16.452Z,77.4
2016-08-07T00:13:27.690Z,77.3
2016-08-07T00:13:38.197Z,77.1
2016-08-07T00:13:49.431Z,77.4
2016-08-07T00:14:00.673Z,77.1
2016-08-07T00:14:11.910Z,76.9
2016-08-07T00:14:23.153Z,76.8
2016-08-07T00:14:34.397Z,76.9
2016-08-07T00:14:45.639Z,76.9
2016-08-07T00:14:56.877Z,77.3
2016-08-07T00:15:08.119Z,77.5
2016-08-07T00:15:19.362Z,77.1
2016-08-07T00:15:30.598Z,77.1
2016-08-07T00:15:41.836Z,76.9
2016-08-07T00:15:52.351Z,77
2016-08-07T00:16:03.593Z,77
2016-08-07T00:16:14.106Z,76.8
2016-08-07T00:16:24.611Z,76.9
2016-08-07T00:16:35.125Z,77
2016-08-07T00:16:46.366Z,76.9
2016-08-07T00:16:56.872Z,77
2016-08-07T00:17:06.658Z,76.9
2016-08-07T00:17:17.915Z,77
2016-08-07T00:17:29.155Z,77
2016-08-07T00:17:39.665Z,77
2016-08-07T00:17:50.902Z,76.8
2016-08-07T00:18:01.423Z,76.9
2016-08-07T00:18:12.666Z,76.9
2016-08-07T00:18:23.910Z,77
2016-08-07T00:18:35.158Z,76.9
2016-08-07T00:18:46.398Z,77
2016-08-07T00:18:57.652Z,77
2016-08-07T00:19:08.889Z,76.9
2016-08-07T00:19:20.141Z,76.9
2016-08-07T00:19:30.652Z,76.8
2016-08-07T00:19:54.309Z,76.9
2016-08-07T00:20:04.825Z,76.9
2016-08-07T00:20:15.339Z,76.9
2016-08-07T00:20:26.580Z,77.1
2016-08-07T00:20:37.091Z,76.9
2016-08-07T00:21:00.283Z,77
2016-08-07T00:21:11.521Z,76.9
2016-08-07T00:21:22.767Z,76.9
2016-08-07T00:21:33.280Z,77
2016-08-07T00:21:44.523Z,76.8
2016-08-07T00:21:55.764Z,77
2016-08-07T00:22:07.009Z,77.1
2016-08-07T00:22:17.521Z,77
2016-08-07T00:22:28.763Z,76.9
2016-08-07T00:22:39.267Z,76.8
2016-08-07T00:22:50.505Z,76.9
2016-08-07T00:23:01.016Z,76.9
2016-08-07T00:23:12.262Z,77
2016-08-07T00:23:23.506Z,76.9
2016-08-07T00:23:34.756Z,76.8
2016-08-07T00:23:45.995Z,76.8
2016-08-07T00:23:57.235Z,77
2016-08-07T00:24:08.478Z,76.9
2016-08-07T00:24:19.717Z,77.2
2016-08-07T00:24:30.959Z,77.2
2016-08-07T00:24:41.469Z,77
2016-08-07T00:24:52.710Z,76.9
2016-08-07T00:25:03.233Z,77.3
2016-08-07T00:25:14.472Z,77.3
2016-08-07T00:25:25.713Z,77.3
2016-08-07T00:25:36.952Z,77.2
2016-08-07T00:25:47.461Z,77.2
2016-08-07T00:25:58.704Z,77.3
2016-08-07T00:26:09.953Z,76.8
2016-08-07T00:26:20.463Z,76.8
2016-08-07T00:26:31.706Z,76.8
2016-08-07T00:26:42.941Z,76.7
2016-08-07T00:26:54.180Z,76.7
2016-08-07T00:27:05.423Z,77
2016-08-07T00:27:16.661Z,77.1
2016-08-07T00:27:27.902Z,77
2016-08-07T00:27:37.685Z,76.7
2016-08-07T00:27:48.923Z,76.7
2016-08-07T00:28:00.161Z,77.1
2016-08-07T00:28:11.398Z,77.1
2016-08-07T00:28:22.642Z,77
2016-08-07T00:28:33.892Z,77.1
2016-08-07T00:28:45.130Z,77.4
2016-08-07T00:28:56.373Z,77.3
2016-08-07T00:29:06.880Z,77.2
2016-08-07T00:29:17.390Z,77.2
2016-08-07T00:29:28.637Z,76.9
2016-08-07T00:29:39.870Z,77.2
2016-08-07T00:29:50.374Z,77.4
2016-08-07T00:30:01.617Z,77.3
2016-08-07T00:30:12.856Z,77.2
2016-08-07T00:30:23.364Z,77.3
2016-08-07T00:30:34.607Z,77.2
2016-08-07T00:30:45.864Z,77.3
2016-08-07T00:30:57.108Z,77.4
2016-08-07T00:31:08.354Z,77.3
2016-08-07T00:31:19.593Z,77.3
2016-08-07T00:31:30.831Z,76.9
2016-08-07T00:31:41.337Z,77.3
2016-08-07T00:31:52.575Z,77.3
2016-08-07T00:32:03.082Z,76.9
2016-08-07T00:32:14.322Z,77.2
2016-08-07T00:32:25.561Z,77
2016-08-07T00:32:36.806Z,77
2016-08-07T00:32:48.047Z,76.7
2016-08-07T00:32:59.285Z,76.6
2016-08-07T00:33:09.796Z,76.6
2016-08-07T00:33:21.039Z,76.7
2016-08-07T00:33:32.285Z,77
2016-08-07T00:33:43.527Z,77.1
2016-08-07T00:33:54.764Z,77.4
2016-08-07T00:34:06.003Z,76.9
2016-08-07T00:34:17.247Z,77
2016-08-07T00:34:28.491Z,77
2016-08-07T00:34:39.732Z,77
2016-08-07T00:34:50.970Z,77.1
2016-08-07T00:35:02.210Z,77.1
2016-08-07T00:35:13.450Z,77.1
2016-08-07T00:35:24.689Z,77
2016-08-07T00:35:35.928Z,77.2
2016-08-07T00:35:47.168Z,77.1
2016-08-07T00:35:58.410Z,77.1
2016-08-07T00:36:09.653Z,76.9
2016-08-07T00:36:20.160Z,76.7
2016-08-07T00:36:31.408Z,76.8
2016-08-07T00:36:42.653Z,76.9
2016-08-07T00:36:53.893Z,76.8
2016-08-07T00:37:05.135Z,77.1
2016-08-07T00:37:16.386Z,76.9
2016-08-07T00:37:27.623Z,76.9
2016-08-07T00:37:38.873Z,76.9
2016-08-07T00:37:50.122Z,77
2016-08-07T00:38:13.038Z,76.8
2016-08-07T00:38:24.281Z,76.8
2016-08-07T00:38:34.797Z,77
2016-08-07T00:38:46.038Z,76.8
2016-08-07T00:38:57.275Z,77.1
2016-08-07T00:39:08.513Z,76.8
2016-08-07T00:39:19.754Z,77
2016-08-07T00:39:30.992Z,76.8
2016-08-07T00:39:42.233Z,77
2016-08-07T00:39:53.484Z,76.9
2016-08-07T00:40:04.721Z,77
2016-08-07T00:40:15.968Z,77
2016-08-07T00:40:27.211Z,77
2016-08-07T00:40:38.452Z,76.9
2016-08-07T00:40:49.691Z,76.9
2016-08-07T00:41:00.932Z,77.1
2016-08-07T00:41:12.175Z,76.9
2016-08-07T00:41:23.413Z,76.9
2016-08-07T00:41:33.926Z,76.9
2016-08-07T00:41:45.170Z,76.9
2016-08-07T00:41:56.412Z,76.8
2016-08-07T00:42:06.920Z,76.9
2016-08-07T00:42:18.158Z,76.9
2016-08-07T00:42:29.398Z,77
2016-08-07T00:42:40.649Z,76.9
2016-08-07T00:42:51.895Z,77
2016-08-07T00:43:03.249Z,76.8
2016-08-07T00:43:14.937Z,77.1
2016-08-07T00:43:26.191Z,76.8
2016-08-07T00:43:37.428Z,76.8
2016-08-07T00:43:48.680Z,76.9
2016-08-07T00:43:59.921Z,76.8
2016-08-07T00:44:11.160Z,76.8
2016-08-07T00:44:21.668Z,76.8
2016-08-07T00:44:32.915Z,76.7
2016-08-07T00:44:43.524Z,77
2016-08-07T00:44:54.763Z,76.9
2016-08-07T00:45:06.002Z,76.8
2016-08-07T00:45:17.243Z,76.8
2016-08-07T00:45:28.488Z,77.1
2016-08-07T00:45:39.728Z,77.2
2016-08-07T00:45:50.969Z,76.9
2016-08-07T00:46:04.405Z,76.7
2016-08-07T00:46:12.391Z,76.7
2016-08-07T00:46:23.632Z,77
2016-08-07T00:46:34.867Z,76.7
2016-08-07T00:46:46.106Z,76.7
2016-08-07T00:46:57.353Z,76.8
2016-08-07T00:47:07.860Z,76.7
2016-08-07T00:47:19.105Z,76.8
2016-08-07T00:47:30.344Z,76.7
2016-08-07T00:47:41.588Z,77.1
2016-08-07T00:47:52.831Z,76.9
2016-08-07T00:48:04.075Z,77.2
2016-08-07T00:48:15.318Z,77.1
2016-08-07T00:48:25.828Z,77.2
2016-08-07T00:48:37.066Z,77.1
2016-08-07T00:48:48.305Z,77
2016-08-07T00:48:59.547Z,76.7
2016-08-07T00:49:10.787Z,76.7
2016-08-07T00:49:21.300Z,76.9
2016-08-07T00:49:32.545Z,76.7
2016-08-07T00:49:43.787Z,76.8
2016-08-07T00:49:54.305Z,76.7
2016-08-07T00:50:06.919Z,76.6
2016-08-07T00:50:15.631Z,76.5
2016-08-07T00:50:26.141Z,76.9
2016-08-07T00:50:37.410Z,76.6
2016-08-07T00:50:48.653Z,77
2016-08-07T00:51:11.299Z,76.6
2016-08-07T00:51:22.582Z,76.5
2016-08-07T00:51:33.830Z,76.7
2016-08-07T00:51:45.071Z,76.7
2016-08-07T00:51:56.315Z,76.9
2016-08-07T00:52:07.571Z,76.6
2016-08-07T00:52:18.083Z,76.9
2016-08-07T00:52:29.327Z,76.6
2016-08-07T00:52:39.839Z,76.7
2016-08-07T00:52:51.086Z,76.7
2016-08-07T00:53:02.327Z,77.2
2016-08-07T00:53:13.576Z,77.2
2016-08-07T00:53:24.813Z,77.1
2016-08-07T00:53:36.063Z,77.3
2016-08-07T00:53:47.304Z,77.2
2016-08-07T00:53:57.813Z,77.2
2016-08-07T00:54:08.328Z,77.3
2016-08-07T00:54:19.570Z,77.4
2016-08-07T00:54:30.854Z,77.2
2016-08-07T00:54:42.094Z,76.9
2016-08-07T00:54:53.371Z,77
2016-08-07T00:55:04.612Z,77
2016-08-07T00:55:15.852Z,77.4
2016-08-07T00:55:27.095Z,77.3
2016-08-07T00:55:38.336Z,77.2
2016-08-07T00:55:49.574Z,76.9
2016-08-07T00:56:00.855Z,76.9
2016-08-07T00:56:12.093Z,77.4
2016-08-07T00:56:22.604Z,77.1
2016-08-07T00:56:33.844Z,76.9
2016-08-07T00:56:45.084Z,76.8
2016-08-07T00:56:56.332Z,77.4
2016-08-07T00:57:07.571Z,77.1
2016-08-07T00:57:18.810Z,77.2
2016-08-07T00:57:30.067Z,77.3
2016-08-07T00:57:41.315Z,77.2
2016-08-07T00:57:52.559Z,77.1
2016-08-07T00:58:03.798Z,77
2016-08-07T00:58:15.040Z,77.2
2016-08-07T00:58:26.276Z,77
2016-08-07T00:58:37.517Z,77.1
2016-08-07T00:58:48.759Z,77.1
2016-08-07T00:59:00.002Z,76.7
2016-08-07T00:59:10.524Z,76.7
2016-08-07T00:59:21.771Z,77
2016-08-07T00:59:33.008Z,77.1
2016-08-07T00:59:44.252Z,77.1
2016-08-07T00:59:55.501Z,76.8
2016-08-07T01:00:06.744Z,77.2
2016-08-07T01:00:17.983Z,77.1
2016-08-07T01:00:28.494Z,76.8
2016-08-07T01:00:39.731Z,77.1
2016-08-07T01:00:50.973Z,76.7
2016-08-07T01:01:02.245Z,76.8
2016-08-07T01:01:13.655Z,76.9
2016-08-07T01:01:24.884Z,76.5
2016-08-07T01:01:36.127Z,76.7
2016-08-07T01:01:47.368Z,76.7
2016-08-07T01:01:58.613Z,76.7
2016-08-07T01:02:09.969Z,76.7
2016-08-07T01:02:21.236Z,76.6
2016-08-07T01:02:32.528Z,76.9
2016-08-07T01:02:43.768Z,76.6
2016-08-07T01:02:54.281Z,76.5
2016-08-07T01:03:05.526Z,76.5
2016-08-07T01:03:16.098Z,76.9
2016-08-07T01:03:27.339Z,76.6
2016-08-07T01:03:38.578Z,76.7
2016-08-07T01:03:49.819Z,76.6
2016-08-07T01:04:01.121Z,76.7
2016-08-07T01:04:12.383Z,76.7
2016-08-07T01:04:23.626Z,76.6
2016-08-07T01:04:34.864Z,76.5
2016-08-07T01:04:46.104Z,76.7
2016-08-07T01:04:57.361Z,76.6
2016-08-07T01:05:08.603Z,76.5
2016-08-07T01:05:18.400Z,76.6
2016-08-07T01:05:29.642Z,76.6
2016-08-07T01:05:40.159Z,76.7
2016-08-07T01:05:51.403Z,76.7
2016-08-07T01:06:14.603Z,76.7
2016-08-07T01:06:25.108Z,76.6
2016-08-07T01:06:36.350Z,76.4
2016-08-07T01:06:47.631Z,76.5
2016-08-07T01:06:58.865Z,76.8
2016-08-07T01:07:10.601Z,76.7
2016-08-07T01:07:21.835Z,76.7
2016-08-07T01:07:33.080Z,76.7
2016-08-07T01:07:43.590Z,76.7
2016-08-07T01:07:54.844Z,76.6
2016-08-07T01:08:06.077Z,76.7
2016-08-07T01:08:17.372Z,76.7
2016-08-07T01:08:28.614Z,76.7
2016-08-07T01:08:39.868Z,76.7
2016-08-07T01:08:51.107Z,76.6
2016-08-07T01:09:02.349Z,76.7
2016-08-07T01:09:13.765Z,76.7
2016-08-07T01:09:25.011Z,76.7
2016-08-07T01:09:36.272Z,76.7
2016-08-07T01:09:47.519Z,76.6
2016-08-07T01:09:58.762Z,76.8
2016-08-07T01:10:10.074Z,76.7
2016-08-07T01:10:21.394Z,76.7
2016-08-07T01:10:32.640Z,76.6
2016-08-07T01:10:43.880Z,76.6
2016-08-07T01:10:55.118Z,76.6
2016-08-07T01:11:06.377Z,76.8
2016-08-07T01:11:17.614Z,76.6
2016-08-07T01:11:28.869Z,76.6
2016-08-07T01:11:40.109Z,76.6
2016-08-07T01:11:51.349Z,76.7
2016-08-07T01:12:02.599Z,76.6
2016-08-07T01:12:13.855Z,76.7
2016-08-07T01:12:24.366Z,76.8
2016-08-07T01:12:35.695Z,76.6
2016-08-07T01:12:46.201Z,76.8
2016-08-07T01:12:57.444Z,77.3
2016-08-07T01:13:08.932Z,77.2
2016-08-07T01:13:20.175Z,77.3
2016-08-07T01:13:31.416Z,77.1
2016-08-07T01:13:42.655Z,77.2
2016-08-07T01:13:53.896Z,77.3
2016-08-07T01:14:04.413Z,76.9
2016-08-07T01:14:15.655Z,76.9
2016-08-07T01:14:26.897Z,77.3
2016-08-07T01:14:38.142Z,76.8
2016-08-07T01:14:49.385Z,77
2016-08-07T01:15:00.626Z,77.3
2016-08-07T01:15:11.920Z,77.2
2016-08-07T01:15:22.434Z,77.3
2016-08-07T01:15:33.684Z,76.9
2016-08-07T01:15:44.920Z,77.3
2016-08-07T01:15:55.424Z,77
2016-08-07T01:16:05.940Z,76.9
2016-08-07T01:16:17.196Z,77.1
2016-08-07T01:16:28.438Z,77.2
2016-08-07T01:16:39.680Z,77.1
2016-08-07T01:16:50.923Z,77.1
2016-08-07T01:17:02.165Z,77.1
2016-08-07T01:17:13.408Z,77.2
2016-08-07T01:17:24.663Z,77
2016-08-07T01:17:35.905Z,76.9
2016-08-07T01:17:47.272Z,76.9
2016-08-07T01:17:57.785Z,77.2
2016-08-07T01:18:09.028Z,77.2
2016-08-07T01:18:20.276Z,77.1
2016-08-07T01:18:31.520Z,77.3
2016-08-07T01:18:42.758Z,77.3
2016-08-07T01:18:53.995Z,76.9
2016-08-07T01:19:05.245Z,76.6
2016-08-07T01:19:16.479Z,76.7
2016-08-07T01:19:27.726Z,76.8
2016-08-07T01:19:38.968Z,76.6
2016-08-07T01:19:50.205Z,76.8
2016-08-07T01:20:01.459Z,76.6
2016-08-07T01:20:12.967Z,76.7
2016-08-07T01:20:24.208Z,77
2016-08-07T01:20:35.461Z,76.8
2016-08-07T01:20:46.700Z,77
2016-08-07T01:20:57.992Z,77.1
2016-08-07T01:21:09.240Z,77.2
2016-08-07T01:21:19.886Z,77.2
2016-08-07T01:21:31.120Z,77.2
2016-08-07T01:21:41.624Z,76.9
2016-08-07T01:21:52.860Z,76.9
2016-08-07T01:22:04.101Z,77.1
2016-08-07T01:22:15.335Z,77.1
2016-08-07T01:22:26.574Z,77.2
2016-08-07T01:22:37.817Z,76.8
2016-08-07T01:22:49.077Z,77.1
2016-08-07T01:23:00.326Z,77.1
2016-08-07T01:23:11.564Z,77.2
2016-08-07T01:23:34.759Z,77.1
2016-08-07T01:23:46.054Z,77.2
2016-08-07T01:23:57.306Z,77.3
2016-08-07T01:24:07.821Z,76.9
2016-08-07T01:24:19.060Z,76.8
2016-08-07T01:24:30.303Z,77.2
2016-08-07T01:24:41.547Z,76.8
2016-08-07T01:24:52.801Z,77.2
2016-08-07T01:25:04.536Z,77
2016-08-07T01:25:15.776Z,77
2016-08-07T01:25:26.289Z,76.6
2016-08-07T01:25:37.529Z,76.7
2016-08-07T01:25:48.772Z,76.8
2016-08-07T01:26:00.016Z,76.7
2016-08-07T01:26:11.255Z,76.9
2016-08-07T01:26:22.496Z,76.8
2016-08-07T01:26:33.737Z,76.9
2016-08-07T01:26:44.982Z,76.7
2016-08-07T01:26:56.225Z,77
2016-08-07T01:27:07.469Z,76.9
2016-08-07T01:27:19.674Z,76.8
2016-08-07T01:27:30.917Z,76.9
2016-08-07T01:27:42.286Z,76.7
2016-08-07T01:27:52.797Z,76.8
2016-08-07T01:28:04.043Z,76.9
2016-08-07T01:28:15.283Z,76.8
2016-08-07T01:28:26.525Z,76.9
2016-08-07T01:28:37.772Z,77
2016-08-07T01:28:49.009Z,76.8
2016-08-07T01:28:59.515Z,76.8
2016-08-07T01:29:10.886Z,76.8
2016-08-07T01:29:22.132Z,76.8
2016-08-07T01:29:33.375Z,76.8
2016-08-07T01:29:44.620Z,76.9
2016-08-07T01:29:55.137Z,77.1
2016-08-07T01:30:06.382Z,77
2016-08-07T01:30:18.097Z,76.8
2016-08-07T01:30:29.334Z,76.9
2016-08-07T01:30:40.574Z,77
2016-08-07T01:30:51.818Z,77
2016-08-07T01:31:03.064Z,77.1
2016-08-07T01:31:14.306Z,77
2016-08-07T01:31:25.863Z,77.1
2016-08-07T01:31:37.105Z,77
2016-08-07T01:31:47.665Z,76.6
2016-08-07T01:31:58.226Z,76.8
2016-08-07T01:32:09.465Z,77
2016-08-07T01:32:20.713Z,77
2016-08-07T01:32:32.582Z,77
2016-08-07T01:32:43.942Z,77.1
2016-08-07T01:32:55.180Z,76.9
2016-08-07T01:33:05.698Z,77.2
2016-08-07T01:33:19.327Z,77.3
2016-08-07T01:33:28.044Z,77.2
2016-08-07T01:33:39.348Z,77
2016-08-07T01:33:50.873Z,77.2
2016-08-07T01:34:02.112Z,77.1
2016-08-07T01:34:13.349Z,77.3
2016-08-07T01:34:24.606Z,77.2
2016-08-07T01:34:37.003Z,77.1
2016-08-07T01:34:48.241Z,76.9
2016-08-07T01:34:59.683Z,76.7
2016-08-07T01:35:10.923Z,76.8
2016-08-07T01:35:22.166Z,76.6
2016-08-07T01:35:33.417Z,76.5
2016-08-07T01:35:44.666Z,76.5
2016-08-07T01:35:56.161Z,76.6
2016-08-07T01:36:07.403Z,76.7
2016-08-07T01:36:30.601Z,76.5
2016-08-07T01:36:42.980Z,76.6
2016-08-07T01:36:54.225Z,76.6
2016-08-07T01:37:05.471Z,76.5
2016-08-07T01:37:16.710Z,76.5
2016-08-07T01:37:27.955Z,76.6
2016-08-07T01:37:39.194Z,76.7
2016-08-07T01:37:50.434Z,76.7
2016-08-07T01:38:01.684Z,76.7
2016-08-07T01:38:13.115Z,76.8
2016-08-07T01:38:24.358Z,76.6
2016-08-07T01:38:35.614Z,76.7
2016-08-07T01:38:46.138Z,76.5
2016-08-07T01:38:57.373Z,76.5
2016-08-07T01:39:08.611Z,76.8
2016-08-07T01:39:19.126Z,76.5
2016-08-07T01:39:30.390Z,76.6
2016-08-07T01:39:41.712Z,76.6
2016-08-07T01:39:52.955Z,76.7
2016-08-07T01:40:04.225Z,76.9
2016-08-07T01:40:15.474Z,76.7
2016-08-07T01:40:26.064Z,76.6
2016-08-07T01:40:36.579Z,76.7
2016-08-07T01:40:47.812Z,76.6
2016-08-07T01:40:59.047Z,76.6
2016-08-07T01:41:10.359Z,76.6
2016-08-07T01:41:21.597Z,76.8
2016-08-07T01:41:32.841Z,76.7
2016-08-07T01:41:44.080Z,76.8
2016-08-07T01:41:55.320Z,76.7
2016-08-07T01:42:06.567Z,76.7
2016-08-07T01:42:17.813Z,76.6
2016-08-07T01:42:29.049Z,76.7
2016-08-07T01:42:39.560Z,76.6
2016-08-07T01:42:50.814Z,76.6
2016-08-07T01:43:01.325Z,76.8
2016-08-07T01:43:12.597Z,76.7
2016-08-07T01:43:23.256Z,76.8
2016-08-07T01:43:35.004Z,76.7
2016-08-07T01:43:46.242Z,76.6
2016-08-07T01:43:57.483Z,76.6
2016-08-07T01:44:07.999Z,76.6
2016-08-07T01:44:21.038Z,76.5
2016-08-07T01:44:32.278Z,76.3
2016-08-07T01:44:43.526Z,76.4
2016-08-07T01:44:54.844Z,76.3
2016-08-07T01:45:06.087Z,76.4
2016-08-07T01:45:17.323Z,76.6
2016-08-07T01:45:29.246Z,76.4
2016-08-07T01:45:40.488Z,76.5
2016-08-07T01:45:51.733Z,76.7
2016-08-07T01:46:02.982Z,76.6
2016-08-07T01:46:14.228Z,76.7
2016-08-07T01:46:25.477Z,76.3
2016-08-07T01:46:36.721Z,76.2
2016-08-07T01:46:48.326Z,76.3
2016-08-07T01:46:59.569Z,76.3
2016-08-07T01:47:10.818Z,76.7
2016-08-07T01:47:22.058Z,76.2
2016-08-07T01:47:33.299Z,76.2
2016-08-07T01:47:44.542Z,76.2
2016-08-07T01:47:55.777Z,76.1
2016-08-07T01:48:07.024Z,76.1
2016-08-07T01:48:18.275Z,76.6
2016-08-07T01:48:29.517Z,76.4
2016-08-07T01:48:40.046Z,76.4
2016-08-07T01:48:50.550Z,76.6
2016-08-07T01:49:01.096Z,76.5
2016-08-07T01:49:12.346Z,76.3
2016-08-07T01:49:23.589Z,76.4
2016-08-07T01:49:34.833Z,76.4
2016-08-07T01:49:46.073Z,76.6
2016-08-07T01:49:57.315Z,76.4
2016-08-07T01:50:08.640Z,76.6
2016-08-07T01:50:19.883Z,76.6
2016-08-07T01:50:31.127Z,76.5
2016-08-07T01:50:42.367Z,76.6
2016-08-07T01:50:53.611Z,76.6
2016-08-07T01:51:04.123Z,76.7
2016-08-07T01:51:15.361Z,76.6
2016-08-07T01:51:38.127Z,76.5
2016-08-07T01:51:49.374Z,76.5
2016-08-07T01:52:00.607Z,76.6
2016-08-07T01:52:11.847Z,76.6
2016-08-07T01:52:23.204Z,76.6
2016-08-07T01:52:34.443Z,76.7
2016-08-07T01:52:45.686Z,76.7
2016-08-07T01:52:56.210Z,76.7
2016-08-07T01:53:07.441Z,76.6
2016-08-07T01:53:18.687Z,76.6
2016-08-07T01:53:29.934Z,76.7
2016-08-07T01:53:41.180Z,76.5
2016-08-07T01:53:55.377Z,76.7
2016-08-07T01:54:04.090Z,76.6
2016-08-07T01:54:14.611Z,76.6
2016-08-07T01:54:25.846Z,76.6
2016-08-07T01:54:37.085Z,76.6
2016-08-07T01:54:48.326Z,76.6
2016-08-07T01:54:59.566Z,76.6
2016-08-07T01:55:10.815Z,76.6
2016-08-07T01:55:23.215Z,76.6
2016-08-07T01:55:34.462Z,76.6
2016-08-07T01:55:45.694Z,76.6
2016-08-07T01:55:56.941Z,76.6
2016-08-07T01:56:08.179Z,76.6
2016-08-07T01:56:19.424Z,76.6
2016-08-07T01:56:29.938Z,76.6
2016-08-07T01:56:41.177Z,76.7
2016-08-07T01:56:52.455Z,76.6
2016-08-07T01:57:03.695Z,76.6
2016-08-07T01:57:14.214Z,76.7
2016-08-07T01:57:25.450Z,76.7
2016-08-07T01:57:37.225Z,76.6
2016-08-07T01:57:46.017Z,76.6
2016-08-07T01:57:57.265Z,76.6
2016-08-07T01:58:08.496Z,76.6
2016-08-07T01:58:19.741Z,76.6
2016-08-07T01:58:30.988Z,76.6
2016-08-07T01:58:42.224Z,76.6
2016-08-07T01:58:52.739Z,76.6
2016-08-07T01:59:03.985Z,76.7
2016-08-07T01:59:15.155Z,76.6
2016-08-07T01:59:26.391Z,76.6
2016-08-07T01:59:37.636Z,76.8
2016-08-07T01:59:48.879Z,76.6
2016-08-07T02:00:00.125Z,76.6
2016-08-07T02:00:11.371Z,76.6
2016-08-07T02:00:22.623Z,76.6
2016-08-07T02:00:33.865Z,76.6
2016-08-07T02:00:46.322Z,76.6
2016-08-07T02:00:57.563Z,76.6
2016-08-07T02:01:08.800Z,76.5
2016-08-07T02:01:20.042Z,76.6
2016-08-07T02:01:31.284Z,76.6
2016-08-07T02:01:42.545Z,76.6
2016-08-07T02:01:53.801Z,76.5
2016-08-07T02:02:05.057Z,76.8
2016-08-07T02:02:16.296Z,76.6
2016-08-07T02:02:27.538Z,76.3
2016-08-07T02:02:38.049Z,76.5
2016-08-07T02:02:49.290Z,76.7
2016-08-07T02:03:00.527Z,76.6
2016-08-07T02:03:11.767Z,76.6
2016-08-07T02:03:23.019Z,76.6
2016-08-07T02:03:34.259Z,76.6
2016-08-07T02:03:45.504Z,76.5
2016-08-07T02:03:56.754Z,76.6
2016-08-07T02:04:09.205Z,76.6
2016-08-07T02:04:19.710Z,76.6
2016-08-07T02:04:30.947Z,76.6
2016-08-07T02:04:42.193Z,76.8
2016-08-07T02:04:53.435Z,76.5
2016-08-07T02:05:04.680Z,76.5
2016-08-07T02:05:15.918Z,76.7
2016-08-07T02:05:27.444Z,76.6
2016-08-07T02:05:39.551Z,76.5
2016-08-07T02:05:50.792Z,76.6
2016-08-07T02:06:02.054Z,76.6
2016-08-07T02:06:13.294Z,76.6
2016-08-07T02:06:36.496Z,76.6
2016-08-07T02:06:47.734Z,76.8
2016-08-07T02:06:57.520Z,76.8
2016-08-07T02:07:08.759Z,76.6
2016-08-07T02:07:19.997Z,76.6
2016-08-07T02:07:31.237Z,76.6
2016-08-07T02:07:41.349Z,76.7
2016-08-07T02:07:52.591Z,77.2
2016-08-07T02:08:03.109Z,77.2
2016-08-07T02:08:14.363Z,77.1
2016-08-07T02:08:24.964Z,77.2
2016-08-07T02:08:36.224Z,77.1
2016-08-07T02:08:47.466Z,77
2016-08-07T02:08:58.713Z,76.8
2016-08-07T02:09:09.959Z,76.8
2016-08-07T02:09:21.207Z,76.9
2016-08-07T02:09:32.456Z,76.8
2016-08-07T02:09:43.694Z,77
2016-08-07T02:09:54.939Z,77.1
2016-08-07T02:10:06.217Z,77.2
2016-08-07T02:10:17.489Z,76.8
2016-08-07T02:10:28.909Z,76.8
2016-08-07T02:10:40.145Z,76.9
2016-08-07T02:10:50.658Z,77
2016-08-07T02:11:01.201Z,77
2016-08-07T02:11:12.453Z,77
2016-08-07T02:11:24.364Z,77
2016-08-07T02:11:35.611Z,76.6
2016-08-07T02:11:46.854Z,76.9
2016-08-07T02:11:58.095Z,77
2016-08-07T02:12:09.335Z,76.9
2016-08-07T02:12:20.578Z,77.2
2016-08-07T02:12:31.922Z,77.1
2016-08-07T02:12:42.434Z,76.8
2016-08-07T02:12:53.674Z,77.2
2016-08-07T02:13:04.950Z,76.8
2016-08-07T02:13:16.233Z,76.8
2016-08-07T02:13:27.480Z,77.3
2016-08-07T02:13:38.725Z,77
2016-08-07T02:13:49.961Z,76.7
2016-08-07T02:14:01.202Z,77
2016-08-07T02:14:12.449Z,77.1
2016-08-07T02:14:22.957Z,77.3
2016-08-07T02:14:34.199Z,77.2
2016-08-07T02:14:45.443Z,77
2016-08-07T02:14:56.685Z,76.6
2016-08-07T02:15:08.269Z,76.6
2016-08-07T02:15:19.681Z,76.6
2016-08-07T02:15:30.974Z,76.7
2016-08-07T02:15:42.212Z,76.7
2016-08-07T02:15:53.458Z,76.9
2016-08-07T02:16:04.698Z,77
2016-08-07T02:16:15.941Z,76.7
2016-08-07T02:16:26.454Z,77
2016-08-07T02:16:37.693Z,76.9
2016-08-07T02:16:48.933Z,77
2016-08-07T02:17:00.177Z,76.6
2016-08-07T02:17:11.420Z,76.9
2016-08-07T02:17:22.658Z,77.1
2016-08-07T02:17:34.783Z,77
2016-08-07T02:17:46.022Z,76.7
2016-08-07T02:17:57.268Z,76.5
2016-08-07T02:18:08.525Z,76.6
2016-08-07T02:18:19.897Z,76.6
2016-08-07T02:18:30.404Z,76.7
2016-08-07T02:18:41.647Z,77
2016-08-07T02:18:52.890Z,77.1
2016-08-07T02:19:04.128Z,77.1
2016-08-07T02:19:17.875Z,76.7
2016-08-07T02:19:26.593Z,77.2
2016-08-07T02:19:37.109Z,77.1
2016-08-07T02:19:48.363Z,77.1
2016-08-07T02:19:59.604Z,76.7
2016-08-07T02:20:10.848Z,76.7
2016-08-07T02:20:22.107Z,76.6
2016-08-07T02:20:33.347Z,76.6
2016-08-07T02:20:43.873Z,76.7
2016-08-07T02:20:54.382Z,76.7
2016-08-07T02:21:05.624Z,76.3
2016-08-07T02:21:16.872Z,76.6
2016-08-07T02:21:39.572Z,76.6
2016-08-07T02:21:50.078Z,76.6
2016-08-07T02:22:01.324Z,76.8
2016-08-07T02:22:12.566Z,76.6
2016-08-07T02:22:23.808Z,76.6
2016-08-07T02:22:35.047Z,76.6
2016-08-07T02:22:46.294Z,76.6
2016-08-07T02:22:57.551Z,76.6
2016-08-07T02:23:08.787Z,76.7
2016-08-07T02:23:19.300Z,76.6
2016-08-07T02:23:30.539Z,76.7
2016-08-07T02:23:41.783Z,76.6
2016-08-07T02:23:52.420Z,76.6
2016-08-07T02:24:03.660Z,76.6
2016-08-07T02:24:14.893Z,76.6
2016-08-07T02:24:26.133Z,76.7
2016-08-07T02:24:37.375Z,76.6
2016-08-07T02:24:48.611Z,76.6
2016-08-07T02:24:59.874Z,76.6
2016-08-07T02:25:11.326Z,76.7
2016-08-07T02:25:22.563Z,76.5
2016-08-07T02:25:33.069Z,76.6
2016-08-07T02:25:44.313Z,76.6
2016-08-07T02:25:55.563Z,76.6
2016-08-07T02:26:06.810Z,76.6
2016-08-07T02:26:17.320Z,76.6
2016-08-07T02:26:28.560Z,76.8
2016-08-07T02:26:39.845Z,76.5
2016-08-07T02:26:51.088Z,76.6
2016-08-07T02:27:01.593Z,76.6
2016-08-07T02:27:12.842Z,76.5
2016-08-07T02:27:24.091Z,76.3
2016-08-07T02:27:33.867Z,76.4
2016-08-07T02:27:45.107Z,76.2
2016-08-07T02:27:56.348Z,76.3
2016-08-07T02:28:06.865Z,76.6
2016-08-07T02:28:18.103Z,76.6
2016-08-07T02:28:28.611Z,76.6
2016-08-07T02:28:39.869Z,76.6
2016-08-07T02:28:51.109Z,76.6
2016-08-07T02:29:02.350Z,76.6
2016-08-07T02:29:13.597Z,76.6
2016-08-07T02:29:24.832Z,76.6
2016-08-07T02:29:36.094Z,76.6
2016-08-07T02:29:47.336Z,76.7
2016-08-07T02:29:57.841Z,76.7
2016-08-07T02:30:09.301Z,76.6
2016-08-07T02:30:20.546Z,76.6
2016-08-07T02:30:31.949Z,76.6
2016-08-07T02:30:43.216Z,76.5
2016-08-07T02:30:54.458Z,76.6
2016-08-07T02:31:05.704Z,76.6
2016-08-07T02:31:16.945Z,76.5
2016-08-07T02:31:27.462Z,76.6
2016-08-07T02:31:37.973Z,76.6
2016-08-07T02:31:49.216Z,76.6